Time;durP1;ratioP1;P1;durP2;ratioP2;P2;SDS_P1;SDS_P2;PMS_P1;PMS_P2;Temp;Humidity;BMP_temperature;BMP_pressure;BME280_temperature;BME280_humidity;BME280_pressure;Samples;Min_cycle;Max_cycle;Signal;HPM_P1;HPM_P2
2022/11/30 00:00:14;;;;;;;10.40;7.85;;;;;;;12.29;100.00;101019.78;2046586;28;20122;-79
2022/11/30 00:01:36;;;;;;;12.68;7.30;;;;;;;12.25;100.00;101013.56;2053677;28;20039;-79
2022/11/30 00:02:58;;;;;;;9.57;6.30;;;;;;;12.25;100.00;101018.88;2053324;28;20058;-80
2022/11/30 00:04:20;;;;;;;12.15;6.45;;;;;;;12.22;100.00;101009.97;2045157;28;20058;-80
2022/11/30 00:05:43;;;;;;;14.82;6.88;;;;;;;12.23;100.00;101014.41;2044357;28;20403;-79
2022/11/30 00:07:05;;;;;;;10.55;6.65;;;;;;;12.20;100.00;101012.63;2045108;29;20150;-80
2022/11/30 00:08:28;;;;;;;8.48;5.90;;;;;;;12.18;100.00;101014.38;2047972;29;20097;-79
2022/11/30 00:09:50;;;;;;;9.85;6.47;;;;;;;12.14;100.00;101014.31;2045509;29;20043;-80
2022/11/30 00:11:16;;;;;;;10.50;5.93;;;;;;;12.10;100.00;101017.78;2045164;29;20106;-80
2022/11/30 00:12:41;;;;;;;9.40;6.32;;;;;;;12.06;100.00;101015.97;2037186;29;20047;-79
2022/11/30 00:14:03;;;;;;;25.70;13.55;;;;;;;12.05;100.00;101011.53;2036990;29;20044;-79
2022/11/30 00:15:24;;;;;;;14.50;9.82;;;;;;;12.06;100.00;101024.78;2034054;29;20134;-80
2022/11/30 00:16:47;;;;;;;23.65;14.13;;;;;;;12.06;100.00;101016.84;2036826;29;20141;-80
2022/11/30 00:18:08;;;;;;;16.50;10.48;;;;;;;12.09;100.00;101016.00;2051003;28;20043;-80
2022/11/30 00:19:31;;;;;;;14.30;8.85;;;;;;;12.11;100.00;101015.16;2042382;29;20043;-80
2022/11/30 00:20:56;;;;;;;12.73;7.45;;;;;;;12.16;100.00;101013.44;2035470;29;20064;-80
2022/11/30 00:22:18;;;;;;;10.52;7.22;;;;;;;12.20;100.00;101017.03;2042951;29;20044;-80
2022/11/30 00:23:41;;;;;;;12.98;6.85;;;;;;;12.23;100.00;101012.66;2045410;29;20043;-80
2022/11/30 00:25:05;;;;;;;11.25;7.28;;;;;;;12.28;100.00;101015.34;2037848;29;20056;-80
2022/11/30 00:26:26;;;;;;;11.45;6.93;;;;;;;12.30;100.00;101013.63;2042525;29;20043;-81
2022/11/30 00:27:49;;;;;;;12.63;6.65;;;;;;;12.32;100.00;101017.19;2044810;29;20047;-80
2022/11/30 00:29:12;;;;;;;12.00;6.75;;;;;;;12.32;100.00;101012.78;2040076;29;20099;-81
2022/11/30 00:30:34;;;;;;;11.82;7.07;;;;;;;12.33;100.00;101006.63;2041251;28;20566;-80
2022/11/30 00:31:58;;;;;;;11.77;6.32;;;;;;;12.33;100.00;101013.69;2045292;29;20102;-80
2022/11/30 00:33:20;;;;;;;11.05;5.97;;;;;;;12.33;100.00;101009.28;2045828;29;20052;-80
2022/11/30 00:34:42;;;;;;;11.18;6.82;;;;;;;12.34;100.00;101010.13;2044887;29;20110;-79
2022/11/30 00:36:08;;;;;;;11.35;6.72;;;;;;;12.35;100.00;101015.47;2044887;29;20094;-79
2022/11/30 00:37:30;;;;;;;13.40;6.75;;;;;;;12.36;100.00;101005.75;2046625;28;20600;-79
2022/11/30 00:38:52;;;;;;;10.95;7.20;;;;;;;12.37;100.00;101010.19;2051946;28;20454;-79
2022/11/30 00:40:14;;;;;;;11.65;6.93;;;;;;;12.36;100.00;101005.75;2039731;29;20060;-79
2022/11/30 00:41:36;;;;;;;13.65;7.30;;;;;;;12.36;100.00;101000.47;2050582;28;20055;-78
2022/11/30 00:42:59;;;;;;;11.65;6.88;;;;;;;12.36;100.00;101001.34;2047728;29;20107;-79
2022/11/30 00:44:21;;;;;;;10.00;6.78;;;;;;;12.36;100.00;100998.69;2044862;29;20055;-79
2022/11/30 00:45:42;;;;;;;13.40;9.23;;;;;;;12.35;100.00;100999.56;2044209;29;20055;-79
2022/11/30 00:47:05;;;;;;;16.20;10.38;;;;;;;12.28;100.00;100997.72;2045267;29;20479;-79
2022/11/30 00:48:28;;;;;;;13.00;8.15;;;;;;;12.23;100.00;101003.81;2044955;29;20519;-79
2022/11/30 00:49:51;;;;;;;38.97;18.60;;;;;;;12.15;100.00;100995.78;2045584;29;20043;-80
2022/11/30 00:51:14;;;;;;;45.15;20.55;;;;;;;12.09;100.00;101003.66;2045121;28;20054;-79
2022/11/30 00:52:37;;;;;;;21.05;11.77;;;;;;;12.04;100.00;100997.41;2038667;29;20059;-79
2022/11/30 00:53:59;;;;;;;13.68;7.90;;;;;;;12.03;100.00;101003.56;2044145;29;20047;-79
2022/11/30 00:55:20;;;;;;;108.57;39.42;;;;;;;12.05;100.00;101009.78;2045846;28;20059;-80
2022/11/30 00:56:44;;;;;;;108.05;37.90;;;;;;;12.11;100.00;101003.69;2038704;29;20566;-80
2022/11/30 00:58:08;;;;;;;31.02;14.30;;;;;;;12.18;100.00;101006.44;2044639;29;20138;-79
2022/11/30 00:59:30;;;;;;;27.42;12.75;;;;;;;12.28;100.00;101010.06;2040727;29;20047;-79
2022/11/30 01:00:53;;;;;;;15.60;8.77;;;;;;;12.38;100.00;101006.69;2041763;29;20051;-79
2022/11/30 01:02:14;;;;;;;18.63;10.73;;;;;;;12.47;100.00;101004.13;2046455;29;20047;-79
2022/11/30 01:03:37;;;;;;;75.50;41.25;;;;;;;12.55;100.00;101007.75;2052229;28;20141;-80
2022/11/30 01:04:59;;;;;;;103.38;45.63;;;;;;;12.60;100.00;101006.03;2044859;29;20503;-78
2022/11/30 01:06:23;;;;;;;83.43;39.13;;;;;;;12.63;100.00;101011.38;2044900;29;20051;-78
2022/11/30 01:07:45;;;;;;;39.38;20.35;;;;;;;12.64;100.00;101012.28;2038448;29;20078;-79
2022/11/30 01:09:08;;;;;;;34.35;20.70;;;;;;;12.65;100.00;101008.75;2050832;28;20054;-78
2022/11/30 01:10:29;;;;;;;29.73;16.48;;;;;;;12.64;100.00;101007.88;2048619;29;20055;-78
2022/11/30 01:11:51;;;;;;;30.17;16.35;;;;;;;12.66;100.00;101006.13;2054098;28;20046;-78
2022/11/30 01:13:13;;;;;;;32.78;18.35;;;;;;;12.66;100.00;101006.13;2040825;29;20139;-78
2022/11/30 01:14:35;;;;;;;30.95;16.98;;;;;;;12.67;100.00;101007.00;2050691;28;20491;-78
2022/11/30 01:15:56;;;;;;;25.75;13.48;;;;;;;12.68;100.00;101009.66;2043051;29;20121;-78
2022/11/30 01:17:19;;;;;;;19.52;11.80;;;;;;;12.67;100.00;100997.28;2045901;28;20051;-78
2022/11/30 01:18:41;;;;;;;19.08;10.70;;;;;;;12.69;100.00;100992.00;2038265;29;20044;-78
2022/11/30 01:20:04;;;;;;;21.60;13.57;;;;;;;12.68;100.00;100993.78;2040965;29;20055;-78
2022/11/30 01:21:29;;;;;;;19.00;12.73;;;;;;;12.67;100.00;100986.69;2046529;29;20102;-78
2022/11/30 01:22:50;;;;;;;19.02;11.10;;;;;;;12.65;100.00;100992.88;2046463;29;20043;-78
2022/11/30 01:24:12;;;;;;;18.48;11.02;;;;;;;12.61;100.00;100980.44;2040569;29;20099;-78
2022/11/30 01:25:34;;;;;;;13.80;8.77;;;;;;;12.60;100.00;100979.53;2020210;29;20067;-78
2022/11/30 01:26:56;;;;;;;14.00;7.88;;;;;;;12.62;100.00;100983.09;2041435;28;20500;-78
2022/11/30 01:28:17;;;;;;;12.32;8.20;;;;;;;12.64;100.00;100973.44;2048505;29;20049;-78
2022/11/30 01:29:41;;;;;;;13.70;9.20;;;;;;;12.65;100.00;100975.22;2053757;28;20054;-78
2022/11/30 01:31:04;;;;;;;19.88;11.82;;;;;;;12.63;100.00;100971.66;2040439;29;20055;-78
2022/11/30 01:32:27;;;;;;;17.08;11.32;;;;;;;12.60;100.00;100974.25;2039317;29;20056;-78
2022/11/30 01:33:50;;;;;;;22.58;16.02;;;;;;;12.59;100.00;100979.56;2046329;29;20399;-78
2022/11/30 01:35:12;;;;;;;21.15;16.73;;;;;;;12.54;100.00;100973.28;2038729;29;20409;-78
2022/11/30 01:36:37;;;;;;;16.60;12.68;;;;;;;12.49;100.00;100975.91;2043209;29;20146;-78
2022/11/30 01:37:58;;;;;;;14.48;10.68;;;;;;;12.48;100.00;100971.47;2046289;29;20047;-78
2022/11/30 01:39:21;;;;;;;11.50;7.97;;;;;;;12.48;100.00;100981.19;2045993;29;20432;-78
2022/11/30 01:40:49;;;;;;;12.52;8.07;;;;;;;12.49;100.00;100978.56;2037793;29;20063;-78
2022/11/30 01:42:16;;;;;;;12.18;8.70;;;;;;;12.55;100.00;100980.38;2053174;28;20055;-78
2022/11/30 01:43:40;;;;;;;16.00;10.02;;;;;;;12.61;100.00;100980.44;2039050;29;20103;-78
2022/11/30 01:45:04;;;;;;;14.63;9.55;;;;;;;12.67;100.00;100983.16;2045497;28;20051;-79
2022/11/30 01:46:35;;;;;;;11.85;8.65;;;;;;;12.74;100.00;100980.59;2054466;28;20093;-79
2022/11/30 01:47:58;;;;;;;23.92;15.80;;;;;;;12.81;100.00;100975.34;2047201;29;20078;-79
2022/11/30 01:49:27;;;;;;;24.63;21.48;;;;;;;12.85;100.00;100974.53;2043433;29;20047;-78
2022/11/30 01:50:50;;;;;;;27.83;19.02;;;;;;;12.84;100.00;100981.59;2059963;28;20044;-78
2022/11/30 01:52:18;;;;;;;24.70;18.85;;;;;;;12.86;100.00;100977.19;2048443;29;20189;-79
2022/11/30 01:53:40;;;;;;;20.73;14.38;;;;;;;12.87;100.00;100983.34;2040717;29;20062;-78
2022/11/30 01:55:10;;;;;;;22.10;15.18;;;;;;;12.88;100.00;100982.50;2040607;29;20039;-79
2022/11/30 01:56:32;;;;;;;24.33;17.45;;;;;;;12.88;100.00;100979.84;2047100;29;20059;-80
2022/11/30 01:57:59;;;;;;;21.25;16.13;;;;;;;12.88;100.00;100974.53;2048394;28;20043;-80
2022/11/30 01:59:23;;;;;;;13.80;8.43;;;;;;;12.87;100.00;100972.75;2048380;29;20047;-80
2022/11/30 02:00:48;;;;;;;15.32;11.45;;;;;;;12.87;100.00;100965.69;2048697;29;20051;-79
2022/11/30 02:02:09;;;;;;;11.88;9.30;;;;;;;12.87;100.00;100970.09;2045951;29;20089;-80
2022/11/30 02:03:39;;;;;;;13.75;9.35;;;;;;;12.90;100.00;100972.81;2045955;29;20502;-80
2022/11/30 02:05:01;;;;;;;11.32;6.40;;;;;;;12.90;100.00;100978.09;2048619;28;20072;-80
2022/11/30 02:06:25;;;;;;;10.77;7.13;;;;;;;12.92;100.00;100971.06;2037909;29;20043;-80
2022/11/30 02:07:49;;;;;;;12.25;7.72;;;;;;;12.93;100.00;100983.44;2036445;29;20055;-79
2022/11/30 02:09:12;;;;;;;15.05;8.93;;;;;;;12.94;100.00;100971.94;2035043;29;20451;-79
2022/11/30 02:10:38;;;;;;;30.80;22.40;;;;;;;12.94;100.00;100970.19;2043594;29;20051;-79
2022/11/30 02:12:02;;;;;;;31.95;18.90;;;;;;;12.92;100.00;100971.94;2046573;29;20085;-79
2022/11/30 02:13:37;;;;;;;37.30;23.45;;;;;;;12.91;100.00;100978.13;2045887;28;20086;-79
2022/11/30 02:15:07;;;;;;;27.55;17.38;;;;;;;12.94;100.00;100979.88;2046973;28;20054;-78
2022/11/30 02:16:41;;;;;;;23.10;15.30;;;;;;;12.94;100.00;100970.19;2046808;29;20059;-78
2022/11/30 02:18:09;;;;;;;27.00;16.50;;;;;;;12.98;100.00;100976.41;2047340;29;20087;-79
2022/11/30 02:20:04;;;;;;;16.80;12.30;;;;;;;12.98;100.00;100968.47;2045774;28;20543;-78
2022/11/30 02:21:37;;;;;;;16.40;11.18;;;;;;;12.98;100.00;100969.34;2048372;29;20035;-78
2022/11/30 02:23:34;;;;;;;17.02;10.85;;;;;;;12.99;100.00;100973.78;2046878;29;20959;-79
2022/11/30 02:25:06;;;;;;;22.38;16.00;;;;;;;13.04;100.00;100965.88;2048296;29;20039;-80
2022/11/30 02:26:55;;;;;;;25.42;16.02;;;;;;;13.02;100.00;100967.59;2047055;29;20141;-79
2022/11/30 02:28:42;;;;;;;18.25;12.55;;;;;;;12.99;100.00;100964.94;2040639;29;20154;-79
2022/11/30 02:30:09;;;;;;;13.85;9.85;;;;;;;12.98;100.00;100961.41;2039387;29;20044;-79
2022/11/30 02:31:38;;;;;;;15.93;9.73;;;;;;;12.97;100.00;100962.28;2044165;29;20511;-80
2022/11/30 02:33:07;;;;;;;18.58;11.65;;;;;;;12.97;100.00;100962.28;2038758;29;20484;-79
2022/11/30 02:34:32;;;;;;;17.63;10.27;;;;;;;12.98;100.00;100957.88;2036774;29;20063;-79
2022/11/30 02:35:55;;;;;;;17.25;9.68;;;;;;;12.98;100.00;100950.81;2044145;29;20113;-78
2022/11/30 02:37:19;;;;;;;17.02;11.50;;;;;;;13.00;100.00;100959.63;2045679;29;20078;-79
2022/11/30 02:38:41;;;;;;;17.80;12.27;;;;;;;13.03;100.00;100958.78;2048193;29;20047;-79
2022/11/30 02:40:09;;;;;;;15.18;9.43;;;;;;;13.03;100.00;100962.31;2045110;29;20105;-79
2022/11/30 02:41:37;;;;;;;13.35;7.03;;;;;;;13.03;100.00;100959.69;2046115;29;20163;-79
2022/11/30 02:43:01;;;;;;;12.68;8.75;;;;;;;13.06;100.00;100950.88;2046408;29;20046;-78
2022/11/30 02:44:24;;;;;;;12.38;7.38;;;;;;;13.08;100.00;100952.66;2046100;29;20083;-79
2022/11/30 02:45:56;;;;;;;11.70;6.85;;;;;;;13.13;100.00;100944.75;2045745;29;20109;-79
2022/11/30 02:47:23;;;;;;;10.07;6.77;;;;;;;13.16;100.00;100951.00;2046824;29;20058;-78
2022/11/30 02:48:53;;;;;;;13.80;8.07;;;;;;;13.19;100.00;100950.13;2040390;29;20336;-79
2022/11/30 02:50:19;;;;;;;10.65;7.25;;;;;;;13.21;100.00;100951.00;2039611;29;20138;-80
2022/11/30 02:51:41;;;;;;;14.40;8.23;;;;;;;13.24;100.00;100959.00;2044252;29;20082;-79
2022/11/30 02:53:04;;;;;;;13.40;9.60;;;;;;;13.23;100.00;100954.56;2045715;29;20047;-79
2022/11/30 02:54:25;;;;;;;14.85;10.15;;;;;;;13.19;100.00;100950.13;2045093;28;20114;-79
2022/11/30 02:55:48;;;;;;;17.70;12.50;;;;;;;13.16;100.00;100955.41;2037672;29;20138;-79
2022/11/30 02:57:10;;;;;;;29.00;19.63;;;;;;;13.13;100.00;100947.41;2042977;29;20106;-79
2022/11/30 02:58:33;;;;;;;33.58;20.30;;;;;;;13.14;100.00;100954.50;2048103;28;20047;-80
2022/11/30 02:59:55;;;;;;;27.80;17.00;;;;;;;13.14;100.00;100942.13;2044880;28;20055;-78
2022/11/30 03:01:19;;;;;;;25.15;11.90;;;;;;;13.13;100.00;100950.06;2045226;29;20471;-80
2022/11/30 03:02:42;;;;;;;36.80;21.02;;;;;;;13.09;100.00;100951.78;2044920;28;20094;-79
2022/11/30 03:04:04;;;;;;;32.80;18.35;;;;;;;13.06;100.00;100950.88;2053368;28;20495;-79
2022/11/30 03:05:26;;;;;;;30.88;17.92;;;;;;;13.02;100.00;100947.28;2040214;29;20043;-78
2022/11/30 03:06:47;;;;;;;28.65;15.80;;;;;;;13.04;100.00;100949.97;2050855;28;20157;-80
2022/11/30 03:08:10;;;;;;;32.97;19.85;;;;;;;13.06;100.00;100942.94;2048285;29;20074;-80
2022/11/30 03:09:32;;;;;;;42.13;25.85;;;;;;;13.09;100.00;100946.47;2052287;28;20430;-80
2022/11/30 03:10:54;;;;;;;50.85;38.83;;;;;;;13.14;100.00;100950.06;2040050;29;20032;-80
2022/11/30 03:12:16;;;;;;;52.83;39.67;;;;;;;13.18;100.00;100948.34;2050831;28;20451;-79
2022/11/30 03:13:38;;;;;;;47.28;38.22;;;;;;;13.19;100.00;100944.84;2040239;29;20047;-78
2022/11/30 03:15:00;;;;;;;76.35;60.53;;;;;;;13.21;100.00;100945.72;2041817;28;20563;-79
2022/11/30 03:16:23;;;;;;;52.95;44.67;;;;;;;13.19;100.00;100934.22;2045229;29;20499;-79
2022/11/30 03:17:45;;;;;;;43.85;36.90;;;;;;;13.14;100.00;100943.88;2045470;28;20058;-79
2022/11/30 03:19:07;;;;;;;31.60;25.75;;;;;;;13.11;100.00;100944.72;2044146;29;20040;-78
2022/11/30 03:20:29;;;;;;;18.48;9.48;;;;;;;13.08;100.00;100947.34;2045596;29;20063;-79
2022/11/30 03:21:52;;;;;;;14.15;8.10;;;;;;;13.12;100.00;100943.91;2045155;29;20042;-78
2022/11/30 03:23:13;;;;;;;17.02;11.65;;;;;;;13.20;100.00;100951.00;2047556;29;20047;-79
2022/11/30 03:24:36;;;;;;;14.20;10.25;;;;;;;13.23;100.00;100951.94;2040316;29;20055;-78
2022/11/30 03:25:59;;;;;;;21.00;14.57;;;;;;;13.29;100.00;100954.63;2050864;28;20481;-78
2022/11/30 03:27:21;;;;;;;30.83;21.83;;;;;;;13.35;100.00;100961.72;2047534;28;20059;-79
2022/11/30 03:28:44;;;;;;;43.35;32.92;;;;;;;13.40;100.00;100960.00;2047953;29;20046;-79
2022/11/30 03:30:06;;;;;;;29.75;22.35;;;;;;;13.48;100.00;100958.28;2039917;29;20091;-80
2022/11/30 03:31:31;;;;;;;18.13;11.85;;;;;;;13.55;100.00;100966.31;2037444;29;20079;-80
2022/11/30 03:32:53;;;;;;;28.40;19.85;;;;;;;13.56;100.00;100960.13;2045813;29;20106;-80
2022/11/30 03:34:15;;;;;;;20.50;15.10;;;;;;;13.59;100.00;100966.34;2039931;29;20052;-79
2022/11/30 03:35:37;;;;;;;16.58;11.57;;;;;;;13.54;100.00;100961.88;2029408;29;20151;-80
2022/11/30 03:37:00;;;;;;;16.00;11.15;;;;;;;13.55;100.00;100954.81;2048134;28;20583;-80
2022/11/30 03:38:21;;;;;;;14.15;8.95;;;;;;;13.55;100.00;100963.66;2039317;29;20074;-80
2022/11/30 03:39:44;;;;;;;21.55;11.80;;;;;;;13.59;100.00;100966.34;2034916;29;20210;-80
2022/11/30 03:41:07;;;;;;;14.60;8.43;;;;;;;13.61;100.00;100970.75;2037661;29;20048;-80
2022/11/30 03:42:29;;;;;;;16.67;10.98;;;;;;;13.65;100.00;100963.72;2037577;29;20131;-79
2022/11/30 03:43:52;;;;;;;15.65;10.60;;;;;;;13.68;100.00;100964.59;2029625;29;20048;-80
2022/11/30 03:45:14;;;;;;;15.73;10.18;;;;;;;13.72;100.00;100973.50;2035098;29;20051;-80
2022/11/30 03:46:38;;;;;;;14.77;10.05;;;;;;;13.74;100.00;100964.66;2045534;29;20094;-78
2022/11/30 03:47:59;;;;;;;12.02;8.75;;;;;;;13.79;100.00;100964.66;2039902;29;20059;-79
2022/11/30 03:49:22;;;;;;;14.25;8.85;;;;;;;13.81;100.00;100961.16;2052601;28;20118;-79
2022/11/30 03:50:48;;;;;;;12.38;7.85;;;;;;;13.83;100.00;100963.81;2042261;29;20063;-79
2022/11/30 03:52:10;;;;;;;11.43;6.55;;;;;;;13.84;100.00;100966.50;2037899;29;20052;-79
2022/11/30 03:53:32;;;;;;;13.77;7.68;;;;;;;13.88;100.00;100964.72;2049412;28;20043;-80
2022/11/30 03:54:55;;;;;;;10.73;6.30;;;;;;;13.91;100.00;100970.91;2047894;29;20138;-79
2022/11/30 03:56:16;;;;;;;8.77;6.03;;;;;;;13.95;100.00;100974.50;2045641;29;20043;-80
2022/11/30 03:57:38;;;;;;;10.95;6.38;;;;;;;13.98;100.00;100982.47;2047836;29;20487;-78
2022/11/30 03:59:00;;;;;;;7.45;5.80;;;;;;;13.98;100.00;100978.03;2052320;28;20063;-79
2022/11/30 04:00:22;;;;;;;12.27;8.32;;;;;;;14.00;100.00;100986.03;2040101;29;20241;-79
2022/11/30 04:01:46;;;;;;;9.68;6.10;;;;;;;14.01;100.00;100986.91;2050974;28;20039;-79
2022/11/30 04:03:07;;;;;;;9.90;5.82;;;;;;;14.02;100.00;100978.06;2047789;28;20059;-79
2022/11/30 04:04:30;;;;;;;10.68;7.28;;;;;;;14.02;100.00;100978.97;2053312;28;20145;-79
2022/11/30 04:05:51;;;;;;;12.93;9.43;;;;;;;14.00;100.00;100983.34;2047657;29;20044;-79
2022/11/30 04:07:13;;;;;;;11.30;7.10;;;;;;;14.02;100.00;100978.06;2047581;29;20142;-79
2022/11/30 04:08:37;;;;;;;11.00;5.85;;;;;;;14.06;100.00;100979.84;2053778;28;20039;-79
2022/11/30 04:09:58;;;;;;;10.65;6.40;;;;;;;14.06;100.00;100982.50;2032163;29;20151;-79
2022/11/30 04:11:21;;;;;;;12.85;7.05;;;;;;;14.05;100.00;100986.91;2037320;29;20063;-79
2022/11/30 04:12:42;;;;;;;10.07;6.15;;;;;;;14.05;100.00;100991.34;2041050;29;20062;-79
2022/11/30 04:14:04;;;;;;;8.75;5.28;;;;;;;14.06;100.00;100982.50;2045347;29;20138;-79
2022/11/30 04:15:26;;;;;;;7.35;5.22;;;;;;;14.06;100.00;100985.16;2043671;28;20101;-79
2022/11/30 04:16:49;;;;;;;10.73;6.00;;;;;;;14.05;100.00;100981.63;2037326;29;20040;-80
2022/11/30 04:18:11;;;;;;;9.50;5.88;;;;;;;14.05;100.00;100984.25;2043073;29;20044;-79
2022/11/30 04:19:33;;;;;;;8.50;6.47;;;;;;;14.05;100.00;100984.25;2044781;29;20055;-79
2022/11/30 04:20:58;;;;;;;9.82;5.30;;;;;;;14.04;100.00;100981.63;2045409;29;20050;-79
2022/11/30 04:22:19;;;;;;;9.68;6.45;;;;;;;14.04;100.00;100976.31;2045443;29;20435;-79
2022/11/30 04:23:42;;;;;;;12.38;6.65;;;;;;;14.03;100.00;100977.19;2045093;29;20794;-79
2022/11/30 04:25:04;;;;;;;8.05;5.75;;;;;;;14.01;100.00;100981.59;2045444;29;20206;-79
2022/11/30 04:26:26;;;;;;;;;;;;;;;13.93;100.00;100984.22;2039990;29;20528;-81
2022/11/30 04:27:48;;;;;;;10.82;6.15;;;;;;;13.91;100.00;100978.03;2052020;28;20353;-81
2022/11/30 04:29:11;;;;;;;9.57;5.60;;;;;;;13.91;100.00;100980.69;2040534;29;20530;-80
2022/11/30 04:30:33;;;;;;;9.52;6.03;;;;;;;13.91;100.00;100981.53;2044289;29;20043;-80
2022/11/30 04:31:57;;;;;;;9.02;5.70;;;;;;;13.92;100.00;100983.31;2038986;29;20052;-81
2022/11/30 04:33:20;;;;;;;10.13;6.35;;;;;;;13.92;100.00;100972.69;2052340;28;20059;-81
2022/11/30 04:34:43;;;;;;;8.90;5.95;;;;;;;13.90;100.00;100978.91;2049116;29;20447;-80
2022/11/30 04:36:06;;;;;;;7.78;5.82;;;;;;;13.88;100.00;100970.03;2041499;29;20738;-82
2022/11/30 04:37:29;;;;;;;8.25;5.95;;;;;;;13.87;100.00;100970.91;2046579;29;20051;-81
2022/11/30 04:38:50;;;;;;;9.05;6.15;;;;;;;13.91;100.00;100972.72;2046537;29;20284;-80
2022/11/30 04:40:13;;;;;;;9.38;5.90;;;;;;;13.96;100.00;100978.94;2046712;29;20051;-81
2022/11/30 04:41:35;;;;;;;9.52;6.07;;;;;;;14.00;100.00;100974.50;2047007;29;20043;-81
2022/11/30 04:42:56;;;;;;;12.07;6.35;;;;;;;14.00;100.00;100985.13;2041333;29;20043;-81
2022/11/30 04:44:19;;;;;;;13.50;6.47;;;;;;;13.98;100.00;100986.00;2044376;29;20089;-81
2022/11/30 04:45:40;;;;;;;10.13;6.28;;;;;;;13.99;100.00;100992.19;2049483;28;20086;-81
2022/11/30 04:47:04;;;;;;;8.85;4.93;;;;;;;13.98;100.00;100986.00;2041152;29;20062;-81
2022/11/30 04:48:27;;;;;;;8.73;6.30;;;;;;;14.01;100.00;100981.59;2038806;29;20047;-80
2022/11/30 04:49:48;;;;;;;7.80;5.53;;;;;;;14.04;100.00;100981.63;2046944;29;20126;-80
2022/11/30 04:51:10;;;;;;;9.75;6.30;;;;;;;14.05;100.00;100980.72;2032862;29;20163;-80
2022/11/30 04:52:33;;;;;;;7.68;5.85;;;;;;;14.09;100.00;100977.22;2033145;29;20039;-81
2022/11/30 04:53:55;;;;;;;8.13;5.07;;;;;;;14.12;100.00;100978.09;2049581;29;20055;-82
2022/11/30 04:55:18;;;;;;;7.60;6.00;;;;;;;14.14;100.00;100973.69;2046870;29;20129;-82
2022/11/30 04:56:40;;;;;;;8.05;4.75;;;;;;;14.18;100.00;100982.56;2038751;29;20044;-81
2022/11/30 04:58:02;;;;;;;8.18;5.90;;;;;;;14.20;100.00;100980.81;2051395;28;20754;-81
2022/11/30 04:59:24;;;;;;;8.38;5.03;;;;;;;14.23;100.00;100979.06;2048996;29;20611;-80
2022/11/30 05:00:46;;;;;;;9.88;5.85;;;;;;;14.25;100.00;100993.22;2052463;28;20046;-82
2022/11/30 05:02:09;;;;;;;9.20;5.68;;;;;;;14.25;100.00;100990.56;2049041;29;20508;-81
2022/11/30 05:03:32;;;;;;;7.97;5.35;;;;;;;14.25;100.00;100977.28;2049119;28;20047;-80
2022/11/30 05:04:53;;;;;;;6.85;5.10;;;;;;;14.24;100.00;100980.81;2046512;29;20412;-81
2022/11/30 05:06:16;;;;;;;8.23;5.32;;;;;;;14.24;100.00;100966.69;2046005;28;20102;-81
2022/11/30 05:07:37;;;;;;;8.13;5.68;;;;;;;14.22;100.00;100971.97;2048894;29;20400;-81
2022/11/30 05:09:00;;;;;;;10.75;5.47;;;;;;;14.21;100.00;100970.19;2045482;28;20501;-81
2022/11/30 05:10:21;;;;;;;7.28;4.57;;;;;;;14.21;100.00;100964.00;2038442;29;20093;-81
2022/11/30 05:11:45;;;;;;;7.72;4.78;;;;;;;14.24;100.00;100958.72;2035937;29;20043;-80
2022/11/30 05:13:09;;;;;;;7.22;5.20;;;;;;;14.27;100.00;100967.56;2046666;29;20110;-80
2022/11/30 05:14:31;;;;;;;8.73;4.65;;;;;;;14.31;100.00;100965.78;2054369;28;20077;-81
2022/11/30 05:15:55;;;;;;;6.32;4.88;;;;;;;14.33;100.00;100958.72;2040688;29;20052;-81
2022/11/30 05:17:20;;;;;;;8.32;5.20;;;;;;;14.35;100.00;100963.16;2052368;28;20062;-82
2022/11/30 05:18:43;;;;;;;6.93;4.53;;;;;;;14.35;100.00;100964.94;2048840;28;20475;-81
2022/11/30 05:20:09;;;;;;;7.00;5.07;;;;;;;14.36;100.00;100964.06;2046519;28;20137;-81
2022/11/30 05:21:32;;;;;;;8.13;5.20;;;;;;;14.36;100.00;100964.94;2038693;29;20075;-81
2022/11/30 05:22:53;;;;;;;9.75;4.72;;;;;;;14.38;100.00;100966.72;2051650;28;20457;-81
2022/11/30 05:24:16;;;;;;;7.47;4.40;;;;;;;14.39;100.00;100965.84;2037320;29;20040;-81
2022/11/30 05:25:37;;;;;;;7.55;4.57;;;;;;;14.41;100.00;100958.78;2051186;28;20555;-81
2022/11/30 05:27:00;;;;;;;7.65;4.97;;;;;;;14.45;100.00;100968.53;2048699;28;20090;-81
2022/11/30 05:28:24;;;;;;;7.32;4.75;;;;;;;14.49;100.00;100968.56;2054450;28;20451;-82
2022/11/30 05:29:46;;;;;;;7.43;5.75;;;;;;;14.51;100.00;100971.19;2033057;29;20036;-81
2022/11/30 05:31:08;;;;;;;6.53;4.75;;;;;;;14.51;100.00;100968.53;2049513;28;20054;-81
2022/11/30 05:32:34;;;;;;;6.65;4.43;;;;;;;14.55;100.00;100965.03;2040864;29;20054;-81
2022/11/30 05:33:57;;;;;;;7.63;4.90;;;;;;;14.57;100.00;100966.78;2052271;28;20050;-82
2022/11/30 05:35:19;;;;;;;7.40;4.68;;;;;;;14.60;100.00;100965.94;2048289;29;20051;-81
2022/11/30 05:36:43;;;;;;;6.13;4.35;;;;;;;14.61;100.00;100971.25;2046256;29;20047;-81
2022/11/30 05:38:04;;;;;;;8.15;5.10;;;;;;;14.62;100.00;100973.03;2046311;29;20070;-81
2022/11/30 05:39:27;;;;;;;7.60;4.68;;;;;;;14.66;100.00;100973.91;2046164;29;20607;-82
2022/11/30 05:40:49;;;;;;;9.10;5.93;;;;;;;14.66;100.00;100976.56;2037546;29;20080;-81
2022/11/30 05:42:13;;;;;;;11.02;7.15;;;;;;;14.68;100.00;100977.47;2036066;29;20138;-81
2022/11/30 05:43:36;;;;;;;18.55;14.27;;;;;;;14.69;100.00;100979.25;2046243;29;20051;-81
2022/11/30 05:44:57;;;;;;;25.65;18.98;;;;;;;14.72;100.00;100980.13;2041011;29;20052;-82
2022/11/30 05:46:20;;;;;;;18.60;14.88;;;;;;;14.76;100.00;100981.03;2033587;29;20480;-81
2022/11/30 05:47:43;;;;;;;16.02;11.60;;;;;;;14.81;100.00;100973.94;2046100;28;20043;-81
2022/11/30 05:49:06;;;;;;;19.83;14.45;;;;;;;14.83;100.00;100972.19;2041070;29;20070;-80
2022/11/30 05:50:29;;;;;;;19.67;15.05;;;;;;;14.88;100.00;100980.16;2050631;28;20165;-81
2022/11/30 05:51:51;;;;;;;26.70;21.42;;;;;;;14.90;100.00;100970.44;2041046;29;20052;-82
2022/11/30 05:53:14;;;;;;;39.30;33.38;;;;;;;14.93;100.00;100973.97;2046353;29;20094;-80
2022/11/30 05:54:36;;;;;;;41.97;37.00;;;;;;;14.96;100.00;100976.63;2038582;29;20051;-82
2022/11/30 05:56:01;;;;;;;38.25;34.15;;;;;;;15.00;100.00;100978.41;2035927;29;20095;-82
2022/11/30 05:57:23;;;;;;;45.03;40.25;;;;;;;15.02;100.00;100981.06;2046387;29;20510;-82
2022/11/30 05:58:46;;;;;;;56.00;50.05;;;;;;;15.04;100.00;100976.63;2046488;29;20089;-83
2022/11/30 06:00:09;;;;;;;50.17;44.42;;;;;;;15.10;100.00;100982.81;2045859;29;20051;-82
2022/11/30 06:01:34;;;;;;;47.72;42.72;;;;;;;15.14;100.00;100975.75;2044459;28;20055;-84
2022/11/30 06:02:58;;;;;;;63.00;56.40;;;;;;;15.19;100.00;100978.41;2032755;29;20044;-81
2022/11/30 06:04:20;;;;;;;48.25;43.15;;;;;;;15.24;100.00;100979.28;2049157;28;20633;-80
2022/11/30 06:05:42;;;;;;;;;;;;;;;15.23;100.00;100965.09;2039615;29;20072;-80
2022/11/30 06:07:10;;;;;;;25.70;21.10;;;;;;;15.28;100.00;100963.34;2048203;28;19925;-79
2022/11/30 06:08:32;;;;;;;17.27;15.15;;;;;;;15.32;100.00;100970.44;2045921;28;20561;-79
2022/11/30 06:09:55;;;;;;;12.32;10.18;;;;;;;15.38;100.00;100958.88;2053585;28;20055;-80
2022/11/30 06:11:19;;;;;;;6.68;4.40;;;;;;;15.44;100.00;100965.09;2053685;28;20055;-84
2022/11/30 06:12:41;;;;;;;4.78;3.17;;;;;;;15.47;100.00;100962.44;2053751;28;20046;-82
2022/11/30 06:14:04;;;;;;;6.22;2.75;;;;;;;15.52;100.00;100958.03;2042184;29;20087;-83
2022/11/30 06:15:26;;;;;;;7.05;4.35;;;;;;;15.58;100.00;100950.91;2049319;28;20134;-85
2022/11/30 06:16:49;;;;;;;6.55;4.00;;;;;;;15.61;100.00;100946.50;2051580;28;20555;-84
2022/11/30 06:18:13;;;;;;;5.63;3.05;;;;;;;15.64;100.00;100950.91;2048991;28;20138;-84
2022/11/30 06:19:36;;;;;;;5.63;3.45;;;;;;;15.66;100.00;100946.47;2045547;28;20268;-87